Flight Number: EUR2346 Duration: 1:10
Departure: Stockholm Arlanda (ESSA) at 18:20 Distance: 317 Nm
Arrival: Gdansk Zechowo (EPGD) at 19:30 Equipment: CRJ700

Weather Information
Stockholm / Arlanda, Sweden (ESSA) 59-39N 017-57E 61M Aug 19, 2018 - 04:50 AM EDT / 2018.08.19 0850 UTC
Wind: from the WSW (250 degrees) at 17 MPH (15 KT):0
Visibility: greater than 7 mile(s):0
Sky conditions: mostly cloudy Temperature: 64 F (18 C) Dew Point: 51 F (11 C) Relative Humidity: 63% Pressure (altimeter): 29.83 in. Hg (1010 hPa)
ob: ESSA 190850Z 25015KT 9999 BKN034 18/11 Q1010 NOSIG cycle: 9
Sunrise: 03:20 Sunset: 18:23 (UTC)

Gdansk-Rebiechowo, Poland (EPGD) 54-23N 018-28E 138M Aug 19, 2018 - 05:00 AM EDT / 2018.08.19 0900 UTC
Wind: from the WSW (250 degrees) at 8 MPH (7 KT) (direction variable):0
Visibility: greater than 7 mile(s):0 Temperature: 71 F (22 C) Dew Point: 53 F (12 C) Relative Humidity: 53% Pressure (altimeter): 30.12 in. Hg (1020 hPa)
ob: EPGD 190900Z 25007KT 210V290 CAVOK 22/12 Q1020 cycle: 9
Sunrise: 03:35 Sunset: 18:03 (UTC)

TAF:2018/08/19 06:33 TAF TAF EPGD 190530Z 1906/2006 VRB03KT CAVOK BECMG 1906/1909 26010KT BECMG 1915/1917 VRB03KT

Previous Pireps for this route
Date Aircraft Flight time Fuel used Landing rate On time
2015-01-18CRJ7001.1530190No
2015-05-07CRJ7000.5833110Yes
2015-05-08CRJ7000.5533420Yes
2015-06-10CRJ70001.213990-192Yes
2015-07-04CRJ7001.152988-239Yes
2016-01-29B73701.1911093-147Charter
(pireps marked green are flown by you)

Route map